Time;durP1;ratioP1;P1;durP2;ratioP2;P2;SDS_P1;SDS_P2;PMS_P1;PMS_P2;Temp;Humidity;BMP_temperature;BMP_pressure;BME280_temperature;BME280_humidity;BME280_pressure;Samples;Min_cycle;Max_cycle;Signal;HPM_P1;HPM_P2
2021/08/30 05:04:15;;;;;;;8.90;4.38;;;16.30;89.00;;;;;;4869548;29;20049;-93
2021/08/30 05:07:29;;;;;;;;;;;;;;;;;;;;;
2021/08/30 05:10:52;;;;;;;;;;;;;;;;;;;;;
2021/08/30 05:14:04;;;;;;;;;;;;;;;;;;;;;
2021/08/30 05:16:30;;;;;;;8.00;3.78;;;16.40;88.90;;;;;;4828751;29;20441;-85
2021/08/30 05:18:56;;;;;;;8.13;3.70;;;16.50;89.60;;;;;;4864117;29;20116;-85
2021/08/30 05:21:22;;;;;;;8.50;4.00;;;17.10;89.80;;;;;;4880657;29;20442;-85
2021/08/30 05:23:49;;;;;;;9.30;5.05;;;17.00;90.00;;;;;;4880892;29;20116;-85
2021/08/30 05:26:15;;;;;;;10.50;4.90;;;16.50;90.20;;;;;;4880817;29;20041;-82
2021/08/30 05:28:44;;;;;;;8.40;3.90;;;16.80;90.20;;;;;;4880106;29;20036;-83
2021/08/30 05:31:14;;;;;;;6.68;2.90;;;17.90;90.00;;;;;;4880546;29;20057;-87
2021/08/30 05:33:52;;;;;;;6.78;3.20;;;16.50;88.70;;;;;;4881112;29;20052;-86
2021/08/30 05:36:22;;;;;;;5.28;2.47;;;17.70;89.20;;;;;;4864574;29;20024;-85
2021/08/30 05:42:54;;;;;;;7.05;2.90;;;17.30;89.50;;;;;;4876186;29;20048;-85
2021/08/30 05:45:23;;;;;;;7.28;2.97;;;16.10;88.20;;;;;;4850293;29;20041;-85
2021/08/30 05:47:48;;;;;;;6.97;3.00;;;16.60;88.70;;;;;;4880719;29;20025;-87
2021/08/30 05:50:17;;;;;;;5.47;2.72;;;16.50;88.60;;;;;;4863699;29;20074;-85
2021/08/30 05:52:43;;;;;;;6.40;2.70;;;17.30;89.90;;;;;;4863654;29;20423;-85
2021/08/30 05:55:09;;;;;;;6.47;2.67;;;15.90;88.80;;;;;;4864607;29;20041;-85
2021/08/30 05:57:35;;;;;;;8.90;2.85;;;16.80;88.60;;;;;;4903697;29;20058;-84
2021/08/30 06:00:54;;;;;;;6.00;2.80;;;16.90;89.90;;;;;;4899093;29;20453;-87
2021/08/30 06:03:19;;;;;;;5.93;2.80;;;17.10;89.10;;;;;;4866521;29;20072;-84
2021/08/30 06:05:45;;;;;;;7.10;2.83;;;17.20;88.50;;;;;;4864359;29;20033;-84
2021/08/30 06:08:11;;;;;;;5.30;2.60;;;17.30;89.60;;;;;;4880123;29;20081;-85
2021/08/30 06:10:40;;;;;;;5.93;2.80;;;17.90;88.50;;;;;;4847618;29;20057;-83
2021/08/30 06:13:06;;;;;;;7.05;2.97;;;17.50;88.10;;;;;;4868024;29;20060;-83
2021/08/30 06:15:32;;;;;;;5.85;2.90;;;18.40;88.50;;;;;;4881856;29;20076;-90
2021/08/30 06:18:00;;;;;;;7.32;2.90;;;18.10;88.60;;;;;;4852875;29;20037;-89
2021/08/30 06:20:28;;;;;;;6.75;2.80;;;18.40;89.30;;;;;;4864773;29;20545;-86
2021/08/30 06:22:54;;;;;;;6.60;2.80;;;18.80;89.20;;;;;;4848532;29;20049;-86
2021/08/30 06:25:19;;;;;;;7.10;3.03;;;17.90;86.80;;;;;;4880128;29;20539;-87
2021/08/30 06:27:45;;;;;;;7.13;3.00;;;17.90;87.30;;;;;;4863602;29;20037;-82
2021/08/30 06:30:11;;;;;;;5.65;2.80;;;18.20;86.90;;;;;;4879682;29;20029;-81
2021/08/30 06:32:37;;;;;;;6.28;2.90;;;17.90;87.10;;;;;;4879217;29;20067;-81
2021/08/30 06:35:03;;;;;;;5.65;2.55;;;18.60;87.80;;;;;;4862908;29;20042;-80
2021/08/30 06:37:29;;;;;;;5.55;3.00;;;17.90;86.70;;;;;;4879667;29;20029;-80
2021/08/30 06:39:58;;;;;;;5.93;2.80;;;18.60;87.00;;;;;;4880190;29;20497;-82
2021/08/30 06:42:23;;;;;;;6.30;3.03;;;17.60;86.10;;;;;;4863890;29;20504;-83
2021/08/30 06:44:49;;;;;;;7.03;3.22;;;18.60;87.30;;;;;;4856874;29;20025;-85
2021/08/30 06:47:15;;;;;;;5.30;2.83;;;19.10;87.10;;;;;;4831157;29;20090;-86
2021/08/30 06:49:40;;;;;;;6.78;3.20;;;17.50;86.50;;;;;;4863669;29;20565;-85
2021/08/30 06:52:07;;;;;;;5.55;2.90;;;18.20;87.20;;;;;;4880213;29;20109;-84
2021/08/30 06:54:34;;;;;;;7.32;3.08;;;18.00;86.90;;;;;;4879853;29;20048;-84
2021/08/30 06:57:00;;;;;;;5.57;2.80;;;17.60;86.80;;;;;;4869653;29;20112;-84
2021/08/30 06:59:26;;;;;;;6.03;2.70;;;18.20;87.00;;;;;;4878231;29;20104;-83
2021/08/30 07:01:52;;;;;;;7.45;4.35;;;17.50;86.90;;;;;;4857663;29;20061;-83
2021/08/30 07:04:18;;;;;;;9.82;5.68;;;17.50;87.30;;;;;;4859120;29;20444;-84
2021/08/30 07:06:44;;;;;;;5.03;2.35;;;17.50;87.30;;;;;;4844172;29;20073;-84
2021/08/30 07:09:09;;;;;;;5.72;2.65;;;17.80;87.40;;;;;;4860877;29;20057;-84
2021/08/30 07:11:35;;;;;;;6.93;2.90;;;17.70;87.20;;;;;;4844235;29;20554;-84
2021/08/30 07:14:04;;;;;;;4.65;2.47;;;18.60;88.10;;;;;;4843958;29;20460;-85
2021/08/30 07:16:36;;;;;;;4.45;2.45;;;17.20;87.00;;;;;;4845383;29;20033;-85
2021/08/30 07:19:02;;;;;;;6.47;2.78;;;17.40;87.60;;;;;;4861785;29;20496;-85
2021/08/30 07:21:28;;;;;;;5.53;2.67;;;17.80;87.70;;;;;;4847517;29;20038;-83
2021/08/30 07:23:55;;;;;;;6.18;3.08;;;18.70;88.50;;;;;;4866890;29;20043;-84
2021/08/30 07:26:22;;;;;;;4.15;2.47;;;18.20;87.30;;;;;;4834947;29;20038;-85
2021/08/30 07:28:47;;;;;;;5.60;2.40;;;18.30;87.00;;;;;;4832665;29;20343;-84
2021/08/30 07:31:14;;;;;;;4.68;2.47;;;18.40;86.90;;;;;;4865206;29;20508;-84
2021/08/30 07:33:40;;;;;;;3.35;2.28;;;18.50;86.90;;;;;;4864189;29;20470;-84
2021/08/30 07:36:06;;;;;;;3.58;2.30;;;18.80;87.40;;;;;;4847886;29;20200;-85
2021/08/30 07:38:32;;;;;;;3.60;2.10;;;19.00;86.90;;;;;;4864300;29;20104;-85
2021/08/30 07:40:57;;;;;;;3.88;2.30;;;19.10;86.30;;;;;;4863977;29;20025;-85
2021/08/30 07:43:23;;;;;;;3.88;2.05;;;19.60;86.20;;;;;;4863773;29;20082;-85
2021/08/30 07:45:49;;;;;;;3.40;2.05;;;20.80;87.10;;;;;;4849715;29;20041;-85
2021/08/30 07:48:15;;;;;;;3.88;2.20;;;19.70;86.10;;;;;;4867280;29;20041;-85
2021/08/30 07:50:40;;;;;;;5.18;2.03;;;20.00;85.40;;;;;;4847796;29;20480;-83
2021/08/30 07:53:06;;;;;;;2.85;1.80;;;20.10;85.40;;;;;;4848949;29;20057;-84
2021/08/30 07:55:36;;;;;;;2.60;1.70;;;20.50;85.10;;;;;;4863786;29;20120;-83
2021/08/30 07:58:04;;;;;;;2.63;1.90;;;20.40;84.80;;;;;;4849029;29;20033;-83
2021/08/30 08:00:33;;;;;;;9.35;5.38;;;20.60;84.10;;;;;;4853679;29;20500;-85
2021/08/30 08:02:59;;;;;;;7.50;4.03;;;20.40;84.10;;;;;;4866938;29;20101;-82
2021/08/30 08:05:25;;;;;;;3.22;1.98;;;20.40;84.00;;;;;;4868624;29;20033;-82
2021/08/30 08:07:52;;;;;;;1.77;1.52;;;20.10;83.90;;;;;;4882123;29;20160;-83
2021/08/30 08:10:17;;;;;;;2.53;1.75;;;20.40;84.00;;;;;;4849928;29;20540;-84
2021/08/30 08:12:43;;;;;;;5.00;2.80;;;20.50;84.70;;;;;;4865346;29;20033;-84
2021/08/30 08:15:09;;;;;;;1.95;1.58;;;21.40;84.30;;;;;;4865207;29;20085;-84
2021/08/30 08:17:36;;;;;;;2.78;1.42;;;20.80;83.70;;;;;;4863735;29;20108;-85
2021/08/30 08:20:06;;;;;;;2.28;1.70;;;21.00;83.20;;;;;;4881972;29;20061;-86
2021/08/30 08:22:34;;;;;;;4.53;1.80;;;21.20;83.20;;;;;;4881886;29;20017;-85
2021/08/30 08:25:06;;;;;;;1.50;1.40;;;21.70;83.20;;;;;;4881959;29;20025;-85
2021/08/30 08:27:32;;;;;;;1.23;1.13;;;21.60;82.70;;;;;;4865760;29;20052;-85
2021/08/30 08:29:58;;;;;;;1.98;1.23;;;21.80;82.90;;;;;;4865621;29;20481;-85
2021/08/30 08:32:24;;;;;;;1.27;1.20;;;22.40;82.30;;;;;;4866672;29;20033;-85
2021/08/30 08:34:50;;;;;;;2.30;1.27;;;21.90;80.80;;;;;;4866130;29;20045;-86
2021/08/30 08:37:16;;;;;;;1.27;1.10;;;21.90;80.80;;;;;;4866788;29;20033;-85
2021/08/30 08:39:42;;;;;;;1.30;1.27;;;21.90;80.70;;;;;;4865137;29;20033;-84
2021/08/30 08:42:08;;;;;;;1.30;1.20;;;22.30;82.40;;;;;;4850552;29;20124;-82
2021/08/30 08:44:34;;;;;;;2.15;1.40;;;23.10;81.80;;;;;;4883351;29;20495;-83
2021/08/30 08:47:00;;;;;;;2.58;1.48;;;23.60;81.70;;;;;;4886838;29;20107;-84
2021/08/30 08:49:25;;;;;;;1.55;1.45;;;22.20;80.90;;;;;;4866245;29;20520;-80
2021/08/30 08:51:51;;;;;;;2.20;1.33;;;22.80;81.60;;;;;;4883617;29;20029;-83
2021/08/30 08:54:17;;;;;;;3.78;1.63;;;24.00;82.70;;;;;;4882547;29;20040;-83
2021/08/30 08:56:43;;;;;;;2.38;1.60;;;22.80;80.80;;;;;;4881963;29;20029;-83
2021/08/30 08:59:08;;;;;;;2.28;1.58;;;22.90;80.10;;;;;;4882965;29;20481;-80
2021/08/30 09:01:37;;;;;;;2.83;1.70;;;22.90;79.70;;;;;;4882204;29;20045;-86
2021/08/30 09:04:04;;;;;;;2.58;1.60;;;22.90;79.60;;;;;;4881011;29;20426;-84
2021/08/30 09:06:41;;;;;;;1.65;1.40;;;22.70;80.00;;;;;;4880722;29;20025;-81
2021/08/30 09:09:11;;;;;;;1.85;1.58;;;22.80;79.50;;;;;;4864985;29;20062;-83
2021/08/30 09:11:44;;;;;;;1.45;1.15;;;22.80;79.20;;;;;;4875800;29;20076;-84
2021/08/30 09:14:16;;;;;;;2.17;1.52;;;22.80;78.90;;;;;;4864899;29;20037;-82
2021/08/30 09:16:42;;;;;;;1.33;1.23;;;22.80;78.70;;;;;;4872116;29;20105;-84
2021/08/30 09:19:10;;;;;;;1.75;1.40;;;23.40;78.30;;;;;;4835539;29;20030;-84
2021/08/30 09:21:41;;;;;;;1.73;1.40;;;22.70;77.80;;;;;;4844168;29;20034;-85
2021/08/30 09:24:18;;;;;;;4.20;1.48;;;22.60;78.40;;;;;;4843829;29;20034;-84
2021/08/30 09:27:11;;;;;;;4.55;1.48;;;22.50;78.60;;;;;;4844073;29;20021;-84
2021/08/30 09:29:39;;;;;;;2.13;1.30;;;22.60;79.50;;;;;;4820954;29;20045;-86
2021/08/30 09:32:17;;;;;;;1.52;1.42;;;22.60;79.70;;;;;;4839588;29;20037;-85
2021/08/30 09:34:48;;;;;;;2.75;1.30;;;22.60;79.40;;;;;;4862819;29;20037;-85
2021/08/30 09:37:15;;;;;;;1.95;1.30;;;22.60;79.30;;;;;;4855818;29;20030;-86
2021/08/30 09:39:53;;;;;;;1.40;1.30;;;22.70;80.00;;;;;;4862653;29;20022;-86
2021/08/30 09:42:19;;;;;;;3.05;1.95;;;22.90;80.00;;;;;;4862072;29;20497;-86
2021/08/30 09:44:45;;;;;;;2.38;1.40;;;22.70;78.90;;;;;;4828890;29;20037;-88
2021/08/30 09:47:13;;;;;;;1.08;1.08;;;24.00;79.50;;;;;;4857479;29;20447;-89
2021/08/30 09:49:40;;;;;;;1.90;1.40;;;23.20;78.80;;;;;;4861952;29;20086;-82
2021/08/30 09:52:07;;;;;;;2.25;1.52;;;23.30;79.10;;;;;;4861566;29;20033;-84
2021/08/30 09:54:33;;;;;;;1.55;1.40;;;24.70;79.00;;;;;;4845290;29;20107;-86
2021/08/30 09:56:59;;;;;;;3.78;1.90;;;23.20;78.50;;;;;;4861587;29;20037;-85
2021/08/30 09:59:25;;;;;;;3.55;1.60;;;23.20;77.90;;;;;;4861681;29;20033;-84
2021/08/30 10:01:54;;;;;;;2.45;1.50;;;23.10;78.50;;;;;;4861213;29;20430;-84
2021/08/30 10:04:21;;;;;;;2.55;1.60;;;23.40;78.70;;;;;;4861750;29;20033;-85
2021/08/30 10:06:51;;;;;;;3.65;1.70;;;23.30;79.40;;;;;;4861682;29;20033;-84
2021/08/30 10:09:21;;;;;;;1.33;1.23;;;24.00;80.50;;;;;;4865108;29;20026;-84
2021/08/30 10:11:48;;;;;;;2.25;1.38;;;23.80;78.80;;;;;;4865171;29;20033;-83
2021/08/30 10:14:28;;;;;;;1.27;1.17;;;24.00;78.70;;;;;;4863749;29;20037;-84
2021/08/30 10:16:57;;;;;;;1.60;1.13;;;24.70;80.20;;;;;;4864062;29;20033;-84
2021/08/30 10:19:32;;;;;;;1.10;1.00;;;25.00;79.70;;;;;;4847961;29;20037;-84
2021/08/30 10:22:00;;;;;;;1.98;1.33;;;25.60;79.60;;;;;;4880036;29;20029;-85
2021/08/30 10:24:28;;;;;;;1.92;1.00;;;26.10;78.90;;;;;;4880583;29;20037;-84
2021/08/30 10:27:06;;;;;;;2.63;1.20;;;26.40;92.70;;;;;;4863470;29;20032;-85
2021/08/30 10:29:35;;;;;;;1.70;1.30;;;26.80;92.80;;;;;;4863494;29;20032;-86
2021/08/30 10:32:02;;;;;;;1.77;0.98;;;27.00;91.70;;;;;;4856715;29;20026;-84
2021/08/30 10:34:33;;;;;;;1.95;1.30;;;25.90;91.70;;;;;;4826346;29;20087;-84
2021/08/30 10:37:01;;;;;;;2.33;1.60;;;26.60;92.40;;;;;;4836016;29;20025;-84
2021/08/30 10:39:39;;;;;;;1.23;1.13;;;27.10;92.90;;;;;;4845014;29;20069;-84
2021/08/30 10:42:06;;;;;;;2.13;1.25;;;26.10;92.80;;;;;;4862056;29;20080;-85
2021/08/30 10:44:32;;;;;;;1.15;1.00;;;26.10;92.60;;;;;;4844677;29;20443;-85
2021/08/30 10:47:00;;;;;;;1.00;1.00;;;26.40;93.20;;;;;;4859748;29;20090;-85
2021/08/30 10:49:32;;;;;;;1.05;0.95;;;26.50;94.20;;;;;;4860692;29;20112;-86
2021/08/30 10:52:06;;;;;;;1.30;1.17;;;26.40;95.40;;;;;;4857987;29;20021;-85
2021/08/30 10:54:32;;;;;;;;;;;;;;;;;;4843768;29;20586;-85
2021/08/30 10:56:59;;;;;;;1.00;1.00;;;;;;;;;;4860650;29;19951;-86
2021/08/30 10:59:27;;;;;;;0.90;0.90;;;28.00;95.00;;;;;;4844230;29;20030;-86
2021/08/30 11:02:03;;;;;;;1.00;1.00;;;28.70;82.50;;;;;;4862138;29;20072;-85
2021/08/30 11:04:37;;;;;;;1.30;1.20;;;28.80;91.00;;;;;;4864479;29;20026;-86
2021/08/30 11:07:05;;;;;;;1.65;1.30;;;29.50;90.00;;;;;;4863222;29;20032;-86
2021/08/30 11:09:31;;;;;;;0.98;0.98;;;30.30;84.40;;;;;;4832838;29;20040;-86
2021/08/30 11:12:07;;;;;;;1.75;1.10;;;30.80;81.80;;;;;;4848055;29;20033;-86
2021/08/30 11:14:35;;;;;;;2.28;1.13;;;31.50;77.70;;;;;;4865518;29;20069;-88
2021/08/30 11:17:01;;;;;;;1.38;0.90;;;31.70;75.40;;;;;;4866725;29;20028;-87
2021/08/30 11:19:29;;;;;;;1.15;1.05;;;31.70;76.10;;;;;;4848273;29;20033;-86
2021/08/30 11:21:59;;;;;;;1.20;1.10;;;31.70;76.10;;;;;;4848056;29;20071;-86
2021/08/30 11:24:37;;;;;;;2.72;1.17;;;32.50;79.00;;;;;;4848187;29;20073;-86
2021/08/30 11:27:11;;;;;;;1.00;1.00;;;33.20;80.60;;;;;;4858793;29;20042;-86
2021/08/30 11:29:45;;;;;;;1.05;1.05;;;34.10;75.30;;;;;;4839923;29;20082;-86
2021/08/30 11:32:12;;;;;;;1.30;1.20;;;34.70;67.70;;;;;;4880960;29;20033;-88
2021/08/30 11:34:38;;;;;;;0.80;0.80;;;35.10;66.00;;;;;;4864141;29;20136;-87
2021/08/30 11:37:07;;;;;;;1.20;1.10;;;35.40;63.50;;;;;;4864667;29;20029;-85
2021/08/30 11:39:35;;;;;;;0.60;0.60;;;35.60;63.10;;;;;;4864665;29;20082;-86
2021/08/30 11:42:10;;;;;;;0.63;0.63;;;35.50;61.70;;;;;;4865450;29;20026;-87
2021/08/30 11:44:38;;;;;;;0.98;0.82;;;34.60;59.20;;;;;;4864674;29;20033;-85
2021/08/30 11:47:09;;;;;;;2.13;0.95;;;33.30;59.60;;;;;;4847316;29;20057;-84
2021/08/30 11:49:46;;;;;;;4.05;1.00;;;32.10;60.40;;;;;;4864382;29;20605;-86
2021/08/30 11:52:23;;;;;;;1.50;1.23;;;30.80;62.60;;;;;;4848794;29;20132;-86
2021/08/30 11:55:02;;;;;;;0.90;0.70;;;29.80;64.50;;;;;;4847907;29;20048;-86
2021/08/30 11:57:39;;;;;;;0.82;0.82;;;29.60;65.30;;;;;;4847506;29;20362;-86
2021/08/30 12:00:07;;;;;;;1.50;1.17;;;28.40;64.40;;;;;;4848197;29;20029;-86
2021/08/30 12:02:37;;;;;;;1.40;1.30;;;27.50;66.40;;;;;;4864864;29;20053;-87
2021/08/30 12:05:05;;;;;;;1.10;1.00;;;27.70;69.20;;;;;;4864813;29;20069;-87
2021/08/30 12:07:35;;;;;;;1.17;1.17;;;27.70;70.70;;;;;;4864283;29;20432;-83
2021/08/30 12:10:08;;;;;;;1.88;1.33;;;28.00;74.60;;;;;;4863084;29;20058;-86
2021/08/30 12:12:37;;;;;;;1.40;1.40;;;30.60;75.60;;;;;;4847789;29;20061;-85
2021/08/30 12:15:13;;;;;;;1.20;1.10;;;31.40;74.60;;;;;;4847630;29;20050;-88
2021/08/30 12:17:50;;;;;;;0.75;0.70;;;32.70;70.90;;;;;;4863706;29;20029;-88
2021/08/30 12:20:22;;;;;;;1.55;0.80;;;33.20;66.60;;;;;;4847905;29;20037;-88
2021/08/30 12:22:51;;;;;;;1.00;0.90;;;33.00;64.90;;;;;;4847402;29;20040;-88
2021/08/30 12:25:24;;;;;;;0.77;0.77;;;32.70;64.90;;;;;;4865753;29;20029;-88
2021/08/30 12:27:53;;;;;;;0.70;0.70;;;32.30;64.10;;;;;;4848130;29;20120;-89
2021/08/30 12:30:25;;;;;;;1.30;1.00;;;31.90;65.00;;;;;;4865048;29;20286;-88
2021/08/30 12:32:58;;;;;;;0.85;0.70;;;31.90;65.80;;;;;;4847175;29;20522;-86
2021/08/30 12:35:36;;;;;;;0.75;0.75;;;31.80;65.40;;;;;;4863368;29;20069;-85
2021/08/30 12:38:19;;;;;;;1.58;0.93;;;31.70;66.10;;;;;;4862949;29;20038;-85
2021/08/30 12:40:54;;;;;;;2.53;1.10;;;31.70;64.10;;;;;;4846627;29;20124;-85
2021/08/30 12:43:20;;;;;;;1.30;1.20;;;31.70;63.90;;;;;;4846644;29;20033;-84
2021/08/30 12:45:47;;;;;;;1.50;1.40;;;31.50;66.70;;;;;;4863029;29;20113;-83
2021/08/30 12:48:17;;;;;;;1.40;1.13;;;32.70;70.10;;;;;;4846066;29;20129;-83
2021/08/30 12:50:45;;;;;;;1.10;1.10;;;35.00;69.50;;;;;;4864321;29;20029;-87
2021/08/30 12:53:11;;;;;;;0.88;0.88;;;36.10;67.60;;;;;;4868233;29;20036;-87
2021/08/30 12:55:38;;;;;;;1.17;1.00;;;37.60;65.90;;;;;;4850400;29;20033;-88
2021/08/30 12:58:04;;;;;;;1.15;0.98;;;37.70;61.90;;;;;;4848552;29;20462;-85
2021/08/30 13:00:30;;;;;;;0.88;0.88;;;37.00;59.10;;;;;;4846566;29;20033;-88
2021/08/30 13:02:55;;;;;;;0.70;0.70;;;36.10;59.10;;;;;;4862816;29;20109;-84
2021/08/30 13:05:26;;;;;;;1.20;1.08;;;35.60;60.50;;;;;;4862307;29;20090;-86
2021/08/30 13:07:53;;;;;;;0.63;0.63;;;35.80;59.80;;;;;;4862467;29;20359;-85
2021/08/30 13:10:20;;;;;;;1.15;0.90;;;35.10;60.70;;;;;;4862253;29;20029;-86
2021/08/30 13:12:46;;;;;;;0.73;0.63;;;34.90;61.10;;;;;;4846230;29;20037;-85
2021/08/30 13:15:14;;;;;;;0.60;0.60;;;35.00;61.40;;;;;;4845564;29;20068;-85
2021/08/30 13:17:40;;;;;;;1.02;0.90;;;35.00;61.30;;;;;;4845921;29;20069;-84
2021/08/30 13:20:07;;;;;;;2.08;0.88;;;35.10;60.10;;;;;;4845349;29;20100;-85
2021/08/30 13:22:33;;;;;;;0.60;0.60;;;34.90;59.20;;;;;;4826659;29;20368;-84
2021/08/30 13:24:59;;;;;;;1.20;0.90;;;34.50;60.50;;;;;;4812060;29;20041;-84
2021/08/30 13:27:28;;;;;;;0.63;0.63;;;34.40;60.40;;;;;;4827023;29;20112;-82
2021/08/30 13:29:54;;;;;;;0.80;0.77;;;34.10;60.20;;;;;;4843622;29;20507;-86
2021/08/30 13:32:19;;;;;;;1.52;1.10;;;33.80;61.80;;;;;;4844653;29;20030;-91
2021/08/30 13:34:45;;;;;;;0.80;0.80;;;34.60;65.60;;;;;;4829397;29;20064;-91
2021/08/30 13:37:11;;;;;;;1.17;1.05;;;36.30;65.30;;;;;;4844133;29;20026;-90
2021/08/30 13:39:38;;;;;;;1.65;0.77;;;36.40;58.70;;;;;;4846145;29;20033;-88
2021/08/30 13:42:04;;;;;;;0.60;0.60;;;35.30;58.20;;;;;;4846228;29;20558;-88
2021/08/30 13:44:30;;;;;;;0.63;0.47;;;34.20;58.50;;;;;;4847358;29;20029;-90
2021/08/30 13:46:56;;;;;;;0.80;0.80;;;33.20;59.20;;;;;;4862692;29;20492;-90
2021/08/30 13:49:22;;;;;;;0.85;0.85;;;32.40;60.30;;;;;;4846161;29;20065;-91
2021/08/30 13:51:47;;;;;;;1.35;0.80;;;31.80;62.40;;;;;;4833806;29;20053;-91
2021/08/30 13:54:13;;;;;;;1.45;0.90;;;32.80;64.80;;;;;;4842584;29;20045;-87
2021/08/30 13:56:39;;;;;;;0.93;0.80;;;33.60;64.00;;;;;;4811928;29;20022;-87
2021/08/30 13:59:04;;;;;;;3.20;1.50;;;34.60;62.40;;;;;;4811677;29;20025;-88
2021/08/30 14:01:30;;;;;;;1.50;1.38;;;35.50;63.00;;;;;;4843053;29;20030;-87
2021/08/30 14:03:55;;;;;;;1.38;1.10;;;36.90;61.10;;;;;;4811784;29;20038;-87
2021/08/30 14:06:24;;;;;;;0.93;0.80;;;38.30;60.90;;;;;;4851693;29;20058;-91
2021/08/30 14:08:49;;;;;;;0.85;0.85;;;39.00;55.90;;;;;;4830357;29;20128;-90
2021/08/30 14:11:15;;;;;;;0.85;0.75;;;39.10;54.10;;;;;;4861665;29;20108;-90
2021/08/30 14:13:42;;;;;;;0.60;0.60;;;38.10;51.70;;;;;;4845597;29;20025;-90
2021/08/30 14:16:07;;;;;;;1.13;0.80;;;36.50;52.10;;;;;;4845161;29;20081;-87
2021/08/30 14:18:33;;;;;;;0.80;0.80;;;35.30;60.60;;;;;;4844689;29;20390;-86
2021/08/30 14:21:02;;;;;;;0.90;0.90;;;34.00;67.10;;;;;;4844795;29;20049;-87
2021/08/30 14:23:32;;;;;;;2.40;0.90;;;33.00;67.10;;;;;;4861254;29;20086;-86
2021/08/30 14:25:58;;;;;;;1.40;1.30;;;31.80;68.70;;;;;;4844915;29;20081;-89
2021/08/30 14:28:24;;;;;;;0.88;0.88;;;31.00;69.60;;;;;;4830274;29;20030;-88
2021/08/30 14:30:52;;;;;;;1.15;0.98;;;30.60;72.70;;;;;;4861382;29;20029;-88
2021/08/30 14:33:17;;;;;;;1.35;0.98;;;29.80;66.60;;;;;;4845305;29;20112;-90
2021/08/30 14:35:43;;;;;;;1.50;1.00;;;30.30;69.10;;;;;;4845334;29;20124;-93
2021/08/30 14:38:09;;;;;;;1.00;0.90;;;29.50;70.30;;;;;;4862705;29;20029;-85
2021/08/30 14:40:39;;;;;;;1.13;0.93;;;29.70;70.10;;;;;;4833280;29;20040;-82
2021/08/30 14:43:05;;;;;;;1.02;1.02;;;28.60;68.50;;;;;;4865135;29;20036;-83
2021/08/30 14:45:31;;;;;;;1.05;0.98;;;28.30;70.20;;;;;;4864762;29;20033;-84
2021/08/30 14:47:56;;;;;;;2.30;1.30;;;27.90;71.70;;;;;;4833041;29;20034;-82
2021/08/30 14:50:22;;;;;;;2.75;1.38;;;27.70;73.30;;;;;;4864641;29;20025;-83
2021/08/30 14:52:48;;;;;;;1.58;1.13;;;27.30;75.70;;;;;;4847850;29;20025;-81
2021/08/30 14:55:13;;;;;;;2.42;1.40;;;27.40;78.60;;;;;;4849133;29;20509;-87
2021/08/30 14:57:41;;;;;;;1.35;1.20;;;27.40;82.30;;;;;;4833509;29;20036;-88
2021/08/30 15:00:09;;;;;;;2.15;1.30;;;27.30;77.30;;;;;;4833522;29;20097;-91
2021/08/30 15:02:37;;;;;;;1.45;1.20;;;27.30;74.20;;;;;;4847439;29;20577;-89
2021/08/30 15:05:06;;;;;;;1.48;1.38;;;27.10;76.10;;;;;;4848702;29;20037;-87
2021/08/30 15:07:33;;;;;;;1.58;1.40;;;27.30;74.80;;;;;;4864284;29;20041;-88
2021/08/30 15:09:59;;;;;;;1.48;1.33;;;27.10;75.30;;;;;;4848173;29;20029;-89
2021/08/30 15:12:26;;;;;;;2.15;1.55;;;28.20;75.70;;;;;;4863675;29;20113;-89
2021/08/30 15:14:51;;;;;;;2.28;1.40;;;28.50;73.90;;;;;;4832882;29;20094;-88
2021/08/30 15:17:17;;;;;;;1.60;1.33;;;29.60;76.00;;;;;;4864961;29;20068;-88
2021/08/30 15:19:43;;;;;;;2.65;1.48;;;29.50;75.90;;;;;;4832228;29;20371;-87
2021/08/30 15:22:09;;;;;;;2.10;1.50;;;30.80;79.90;;;;;;4847599;29;20071;-88
2021/08/30 15:24:35;;;;;;;3.97;1.52;;;32.30;77.60;;;;;;4866757;29;20036;-89
2021/08/30 15:27:02;;;;;;;1.30;1.20;;;34.10;73.10;;;;;;4863449;29;20034;-89
2021/08/30 15:29:31;;;;;;;1.40;1.27;;;35.40;72.50;;;;;;4863272;29;20120;-90
2021/08/30 15:31:57;;;;;;;1.30;1.20;;;36.50;72.60;;;;;;4863172;29;20021;-84
2021/08/30 15:34:23;;;;;;;1.00;0.82;;;36.40;63.60;;;;;;4847729;29;20558;-84
2021/08/30 15:36:49;;;;;;;0.90;0.90;;;35.40;61.00;;;;;;4863985;29;20104;-89
2021/08/30 15:39:15;;;;;;;1.90;1.17;;;33.50;60.20;;;;;;4847844;29;20022;-89
2021/08/30 15:41:44;;;;;;;1.33;1.23;;;32.20;63.10;;;;;;4847230;29;20083;-83
2021/08/30 15:44:09;;;;;;;1.60;1.48;;;30.10;63.00;;;;;;4847114;29;20025;-83
2021/08/30 15:46:35;;;;;;;2.80;1.40;;;30.10;66.30;;;;;;4863752;29;20030;-83
2021/08/30 15:49:01;;;;;;;1.33;1.23;;;29.20;67.50;;;;;;4863168;29;20037;-83
2021/08/30 15:51:31;;;;;;;1.60;1.50;;;28.30;67.00;;;;;;4847104;29;20063;-83
2021/08/30 15:54:01;;;;;;;3.40;1.60;;;27.70;69.20;;;;;;4846664;29;20486;-82
2021/08/30 15:56:31;;;;;;;1.83;1.38;;;27.40;72.00;;;;;;4847037;29;20034;-82
2021/08/30 15:58:57;;;;;;;2.83;1.63;;;26.50;73.10;;;;;;4846897;29;20478;-82
2021/08/30 16:01:24;;;;;;;1.70;1.15;;;26.70;75.80;;;;;;4863492;29;20033;-82
2021/08/30 16:03:50;;;;;;;2.08;1.27;;;26.20;75.60;;;;;;4846767;29;20046;-82
2021/08/30 16:06:15;;;;;;;2.03;1.58;;;26.30;78.80;;;;;;4846594;29;20086;-82
2021/08/30 16:08:44;;;;;;;1.45;1.35;;;25.90;75.10;;;;;;4863357;29;20045;-82
2021/08/30 16:11:09;;;;;;;1.77;1.40;;;26.10;78.60;;;;;;4863298;29;20056;-82
2021/08/30 16:13:35;;;;;;;1.65;1.20;;;25.20;65.40;;;;;;4862983;29;20034;-82
2021/08/30 16:16:03;;;;;;;2.20;1.27;;;24.90;67.80;;;;;;4863213;29;20033;-82
2021/08/30 16:18:31;;;;;;;2.00;1.38;;;24.90;72.50;;;;;;4863220;29;20022;-83
2021/08/30 16:20:56;;;;;;;2.47;1.50;;;23.90;66.80;;;;;;4846676;29;20037;-82
2021/08/30 16:23:22;;;;;;;1.63;1.50;;;25.40;71.80;;;;;;4863262;29;20112;-82
2021/08/30 16:25:47;;;;;;;2.35;1.50;;;24.60;72.50;;;;;;4863109;29;20026;-82
2021/08/30 16:28:15;;;;;;;2.05;1.42;;;24.10;74.00;;;;;;4862870;29;20058;-82
2021/08/30 16:30:43;;;;;;;3.28;1.73;;;22.80;73.30;;;;;;4846345;29;20053;-82
2021/08/30 16:33:13;;;;;;;2.65;1.70;;;22.80;77.60;;;;;;4846413;29;20030;-82
2021/08/30 16:35:40;;;;;;;2.53;1.45;;;22.40;77.80;;;;;;4862750;29;20037;-82
2021/08/30 16:38:06;;;;;;;3.50;1.63;;;23.00;81.40;;;;;;4862740;29;20528;-82
2021/08/30 16:40:32;;;;;;;1.75;1.42;;;21.30;78.00;;;;;;4862822;29;20034;-82
2021/08/30 16:42:57;;;;;;;3.83;1.80;;;20.90;74.40;;;;;;4862758;29;20025;-81
2021/08/30 16:45:26;;;;;;;3.25;1.83;;;21.90;78.00;;;;;;4862439;29;20049;-81
2021/08/30 16:47:52;;;;;;;5.03;1.92;;;22.20;79.00;;;;;;4862721;29;20106;-80
2021/08/30 16:50:19;;;;;;;3.30;1.80;;;20.90;81.30;;;;;;4862730;29;20478;-80
2021/08/30 16:52:45;;;;;;;2.17;1.70;;;20.30;81.70;;;;;;4862647;29;20049;-80
2021/08/30 16:55:12;;;;;;;4.38;1.88;;;19.50;78.20;;;;;;4862246;29;20490;-80
2021/08/30 16:57:38;;;;;;;3.50;1.83;;;19.50;82.00;;;;;;4862490;29;20127;-80
2021/08/30 17:00:06;;;;;;;3.78;1.95;;;20.70;83.60;;;;;;4845595;29;20038;-80
2021/08/30 17:02:32;;;;;;;2.63;1.70;;;19.20;84.20;;;;;;4861726;29;20049;-80
2021/08/30 17:04:57;;;;;;;5.15;2.00;;;20.20;87.80;;;;;;4845623;29;20048;-80
2021/08/30 17:07:27;;;;;;;3.78;1.90;;;20.10;87.00;;;;;;4862532;29;20030;-82
2021/08/30 17:09:53;;;;;;;6.07;2.40;;;18.90;88.80;;;;;;4845505;29;20097;-81
2021/08/30 17:12:19;;;;;;;10.48;5.35;;;18.40;90.20;;;;;;4860883;29;20534;-81
2021/08/30 17:14:44;;;;;;;6.78;2.70;;;19.10;90.50;;;;;;4862172;29;20056;-80
2021/08/30 17:17:10;;;;;;;7.13;2.72;;;18.70;90.70;;;;;;4862211;29;20415;-81
2021/08/30 17:19:39;;;;;;;5.43;2.33;;;19.30;90.80;;;;;;4862051;29;20042;-82
2021/08/30 17:22:04;;;;;;;5.32;2.47;;;18.30;92.80;;;;;;4845876;29;20037;-81
2021/08/30 17:24:30;;;;;;;5.43;2.35;;;20.20;92.20;;;;;;4862029;29;20084;-82
2021/08/30 17:26:56;;;;;;;5.22;2.30;;;18.90;93.30;;;;;;4845464;29;20033;-82
2021/08/30 17:29:21;;;;;;;5.05;2.28;;;20.60;93.00;;;;;;4861910;29;20082;-80
2021/08/30 17:31:48;;;;;;;4.88;2.20;;;19.80;93.10;;;;;;4845368;29;20117;-80
2021/08/30 17:34:17;;;;;;;5.63;2.38;;;20.50;93.40;;;;;;4861497;29;20048;-81
2021/08/30 17:36:48;;;;;;;4.68;2.28;;;19.20;93.20;;;;;;4861653;29;20038;-82
2021/08/30 17:39:17;;;;;;;5.03;2.35;;;17.50;95.40;;;;;;4862175;29;20086;-82
2021/08/30 17:41:42;;;;;;;5.18;2.30;;;20.40;96.00;;;;;;4830420;29;20034;-81
2021/08/30 17:44:09;;;;;;;3.95;2.30;;;20.00;96.90;;;;;;4861610;29;20081;-82
2021/08/30 17:46:34;;;;;;;6.75;2.80;;;18.30;96.90;;;;;;4861579;29;20025;-82
2021/08/30 17:49:04;;;;;;;4.68;2.45;;;20.30;99.20;;;;;;4846812;29;20036;-83
2021/08/30 17:51:38;;;;;;;5.18;2.45;;;19.40;97.80;;;;;;4845380;29;20030;-83
2021/08/30 17:54:04;;;;;;;6.13;2.67;;;19.30;97.90;;;;;;4859442;29;20064;-83
2021/08/30 17:56:55;;;;;;;5.47;2.28;;;19.00;99.50;;;;;;4861046;29;20112;-82
2021/08/30 18:02:21;;;;;;;5.40;2.38;;;19.30;98.60;;;;;;4841571;29;20101;-83
2021/08/30 18:04:47;;;;;;;5.60;2.50;;;18.90;98.00;;;;;;4845128;29;20037;-87
2021/08/30 18:07:14;;;;;;;5.10;2.40;;;18.00;99.30;;;;;;4861046;29;20072;-86